Time;durP1;ratioP1;P1;durP2;ratioP2;P2;SDS_P1;SDS_P2;PMS_P1;PMS_P2;Temp;Humidity;BMP_temperature;BMP_pressure;BME280_temperature;BME280_humidity;BME280_pressure;Samples;Min_cycle;Max_cycle;Signal;HPM_P1;HPM_P2
2022/02/10 00:06:59;;;;;;;17.58;7.63;;;;;;;0.95;100.00;99535.56;5029296;28;20112;-72
2022/02/10 00:20:10;;;;;;;16.63;7.97;;;;;;;0.93;100.00;99528.66;5032776;28;20059;-71
2022/02/10 00:26:11;;;;;;;13.68;6.40;;;;;;;0.89;100.00;99517.38;5035666;28;20041;-72
2022/02/10 00:34:14;;;;;;;14.30;6.13;;;;;;;1.15;100.00;99522.41;5011538;28;20586;-72
2022/02/10 00:36:58;;;;;;;10.60;6.40;;;;;;;1.17;100.00;99512.47;5042836;28;20029;-72
2022/02/10 00:41:49;;;;;;;13.18;5.95;;;;;;;0.95;100.00;99490.25;5034295;28;20040;-71
2022/02/10 00:44:14;;;;;;;15.93;5.65;;;;;;;0.86;100.00;99496.31;5040546;28;20037;-71
2022/02/10 00:46:40;;;;;;;14.63;6.00;;;;;;;0.78;100.00;99509.41;5042696;28;20372;-72
2022/02/10 00:49:07;;;;;;;10.43;5.35;;;;;;;0.67;100.00;99501.47;5040450;28;20026;-71
2022/02/10 00:51:32;;;;;;;14.85;5.93;;;;;;;0.61;100.00;99498.31;5047910;28;20021;-71
2022/02/10 00:53:58;;;;;;;10.18;5.15;;;;;;;0.61;100.00;99500.97;5033968;28;20051;-72
2022/02/10 00:56:23;;;;;;;12.25;5.35;;;;;;;0.61;100.00;99503.63;5049322;28;20037;-71
2022/02/10 00:58:57;;;;;;;9.95;5.72;;;;;;;0.77;100.00;99494.41;5044019;28;20075;-71
2022/02/10 01:10:24;;;;;;;9.70;5.70;;;;;;;0.41;100.00;99478.59;5048176;28;20118;-71
2022/02/10 01:12:53;;;;;;;11.57;6.10;;;;;;;0.39;100.00;99495.66;5048445;28;20088;-71
2022/02/10 01:31:40;;;;;;;12.88;6.22;;;;;;;0.16;100.00;99478.88;5044601;28;20450;-72
2022/02/10 01:34:05;;;;;;;13.55;6.18;;;;;;;0.31;100.00;99480.28;5043127;28;20033;-72
2022/02/10 01:36:30;;;;;;;11.60;5.93;;;;;;;0.22;100.00;99460.59;5047175;28;20034;-71
2022/02/10 01:38:56;;;;;;;13.82;6.53;;;;;;;0.23;100.00;99477.41;5038895;28;20048;-71
2022/02/10 02:05:44;;;;;;;13.82;7.07;;;;;;;-0.23;100.00;99435.78;5029977;28;20052;-72
2022/02/10 02:08:11;;;;;;;13.10;6.93;;;;;;;-0.04;100.00;99448.50;5030958;28;20032;-73
2022/02/10 02:10:36;;;;;;;13.27;6.95;;;;;;;0.08;100.00;99449.31;5031035;28;20028;-72
2022/02/10 02:13:03;;;;;;;14.95;7.35;;;;;;;0.22;100.00;99441.13;5033525;28;20104;-72
2022/02/10 02:15:29;;;;;;;14.57;7.32;;;;;;;0.13;100.00;99439.16;5029198;28;20029;-72
2022/02/10 02:17:54;;;;;;;15.38;7.43;;;;;;;0.10;100.00;99426.13;5027683;28;20036;-71
2022/02/10 02:20:20;;;;;;;15.50;8.35;;;;;;;0.15;100.00;99431.94;5031223;28;20116;-71
2022/02/10 02:22:45;;;;;;;15.32;7.20;;;;;;;0.08;100.00;99426.25;5028067;28;20022;-71
2022/02/10 02:25:11;;;;;;;12.40;7.20;;;;;;;-0.11;100.00;99408.22;5030027;28;20119;-72
2022/02/10 02:27:49;;;;;;;15.70;7.53;;;;;;;-0.02;100.00;99427.94;5031348;28;20025;-72
2022/02/10 02:30:39;;;;;;;17.38;7.60;;;;;;;-0.08;100.00;99418.66;5031129;28;20092;-72
2022/02/10 02:36:07;;;;;;;13.50;7.63;;;;;;;-0.13;100.00;99406.66;5019908;28;20033;-72
2022/02/10 03:08:43;;;;;;;13.75;7.43;;;;;;;-0.38;100.00;99397.94;5026342;28;20616;-72
2022/02/10 03:11:11;;;;;;;12.38;6.57;;;;;;;-0.33;100.00;99385.13;5024250;28;20056;-72
2022/02/10 03:13:42;;;;;;;12.18;6.65;;;;;;;-0.32;100.00;99370.88;5031530;28;20028;-72
2022/02/10 03:21:37;;;;;;;15.25;6.90;;;;;;;0.01;100.00;99395.78;5031558;28;20033;-72
2022/02/10 04:13:07;;;;;;;28.42;10.35;;;;;;;-0.11;100.00;99404.72;5028077;28;20095;-72
2022/02/10 05:24:23;;;;;;;7.85;3.72;;;;;;;-0.29;100.00;99343.19;5015217;28;20192;-76
2022/02/10 05:37:50;;;;;;;7.03;3.83;;;;;;;0.14;100.00;99340.63;5036538;28;20037;-77
2022/02/10 05:40:25;;;;;;;7.13;3.80;;;;;;;0.46;100.00;99353.13;5049483;28;20005;-74
2022/02/10 05:45:27;;;;;;;7.57;3.50;;;;;;;0.16;100.00;99332.53;5057941;28;20021;-74
2022/02/10 05:48:10;;;;;;;9.65;3.92;;;;;;;0.16;100.00;99335.19;5053488;28;20030;-75
2022/02/10 08:58:30;;;;;;;5.53;3.30;;;;;;;18.32;34.93;99337.47;5036837;28;20100;-70
2022/02/10 09:09:31;;;;;;;7.93;3.22;;;;;;;17.63;36.69;99347.31;4996136;28;20069;-77
2022/02/10 09:12:07;;;;;;;6.30;3.10;;;;;;;18.74;35.37;99342.72;5014904;28;20033;-74
2022/02/10 09:57:37;;;;;;;7.27;3.03;;;;;;;11.10;53.58;99405.38;5034173;28;20022;-75
2022/02/10 10:00:20;;;;;;;5.80;3.00;;;;;;;11.13;54.04;99391.47;5034236;28;20049;-74
2022/02/10 10:02:53;;;;;;;8.02;3.20;;;;;;;10.97;53.99;99380.84;5028010;28;20029;-74
2022/02/10 10:05:33;;;;;;;5.00;3.13;;;;;;;10.82;54.43;99407.13;5027340;28;20036;-75
2022/02/10 10:14:07;;;;;;;9.88;3.90;;;;;;;9.86;58.55;99396.22;5020880;28;20077;-75
2022/02/10 10:19:37;;;;;;;9.20;2.78;;;;;;;10.20;58.31;99411.09;5034325;28;20471;-77
2022/02/10 10:22:20;;;;;;;7.05;3.28;;;;;;;9.85;59.85;99411.63;5035522;28;20102;-75
2022/02/10 10:53:20;;;;;;;6.20;3.80;;;;;;;8.87;64.78;99404.25;5032779;28;20039;-74
2022/02/10 10:58:17;;;;;;;8.25;4.18;;;;;;;8.91;65.23;99400.19;5020509;28;20096;-76
2022/02/10 11:01:08;;;;;;;7.70;3.78;;;;;;;8.57;66.02;99384.38;5024788;28;20021;-74
2022/02/10 11:25:59;;;;;;;10.85;4.40;;;;;;;9.30;66.68;99380.34;5029456;28;20044;-73
2022/02/10 11:38:15;;;;;;;11.60;5.15;;;;;;;9.02;68.18;99374.66;5028059;28;20035;-71
2022/02/10 11:46:16;;;;;;;8.73;4.60;;;;;;;8.80;68.66;99373.59;5021916;28;20041;-71
2022/02/10 12:35:59;;;;;;;10.10;4.43;;;;;;;8.22;73.16;99391.88;5013763;28;20056;-72
2022/02/10 13:48:42;;;;;;;10.40;4.15;;;;;;;7.43;76.08;99386.31;5021241;28;20044;-75
2022/02/10 14:10:40;;;;;;;6.05;3.75;;;;;;;6.95;76.35;99371.00;5026270;28;20559;-76
2022/02/10 14:13:15;;;;;;;9.55;4.75;;;;;;;6.97;75.84;99355.53;5021777;28;20120;-76
2022/02/10 14:18:28;;;;;;;9.73;4.35;;;;;;;7.21;75.61;99395.91;5025173;28;20025;-76
2022/02/10 14:21:01;;;;;;;13.18;4.47;;;;;;;7.16;76.24;99403.63;5022832;28;20021;-77
2022/02/10 14:26:06;;;;;;;13.40;5.30;;;;;;;6.77;75.88;99333.47;5024780;28;20037;-75
2022/02/10 14:28:32;;;;;;;11.82;4.57;;;;;;;6.99;75.44;99380.38;5024177;28;20030;-75
2022/02/10 14:31:04;;;;;;;14.65;4.30;;;;;;;7.10;75.11;99398.91;5020371;28;20025;-76
2022/02/10 14:33:33;;;;;;;14.25;5.15;;;;;;;6.98;76.25;99370.66;5026930;28;20029;-76
2022/02/10 15:51:24;;;;;;;9.57;4.40;;;;;;;6.60;76.12;99380.97;5024089;28;20026;-78
2022/02/10 16:18:29;;;;;;;9.70;5.00;;;;;;;6.24;77.05;99343.59;5033087;28;20036;-77
2022/02/10 16:21:02;;;;;;;9.32;4.63;;;;;;;6.41;76.72;99373.19;5033805;28;20026;-78
2022/02/10 16:23:31;;;;;;;12.07;4.85;;;;;;;6.31;77.13;99367.94;5035282;28;20029;-77
2022/02/10 16:26:14;;;;;;;11.60;4.05;;;;;;;6.44;76.20;99381.75;5035150;28;20029;-76
2022/02/10 16:28:44;;;;;;;9.05;5.00;;;;;;;6.27;77.01;99354.00;5034446;28;20144;-75
2022/02/10 16:31:11;;;;;;;10.07;4.07;;;;;;;6.31;76.80;99366.13;5035943;28;20021;-78
2022/02/10 16:33:38;;;;;;;9.45;4.45;;;;;;;6.40;77.28;99380.44;5035685;28;20052;-77
2022/02/10 16:36:05;;;;;;;10.32;4.38;;;;;;;6.19;76.74;99345.09;5036979;28;20075;-79
2022/02/10 16:38:32;;;;;;;11.48;4.65;;;;;;;6.33;77.20;99380.22;5032049;28;20037;-76
2022/02/10 16:40:57;;;;;;;9.45;4.60;;;;;;;6.13;77.50;99357.28;5023190;28;20052;-77
2022/02/10 16:43:23;;;;;;;7.55;4.03;;;;;;;6.12;77.19;99334.97;5034964;28;20057;-78
2022/02/10 16:45:49;;;;;;;7.68;4.30;;;;;;;6.35;77.08;99380.06;5035364;28;20387;-77
2022/02/10 16:48:15;;;;;;;9.75;4.53;;;;;;;6.20;76.90;99358.34;5035185;28;20029;-76
2022/02/10 16:50:43;;;;;;;8.68;4.55;;;;;;;6.24;76.52;99369.63;5019199;28;20041;-77
2022/02/10 16:53:15;;;;;;;9.35;3.88;;;;;;;6.19;76.00;99350.44;5036970;28;20037;-76
2022/02/10 16:55:50;;;;;;;10.45;4.00;;;;;;;6.09;76.26;99342.50;5037451;28;20033;-77
2022/02/10 16:58:27;;;;;;;7.20;3.75;;;;;;;6.20;76.46;99358.34;5035674;28;20074;-77
2022/02/10 17:20:01;;;;;;;6.53;3.50;;;;;;;6.15;75.23;99368.72;5040768;28;20024;-77
2022/02/10 17:25:11;;;;;;;6.60;3.58;;;;;;;6.07;75.20;99350.72;5040422;28;20433;-80
2022/02/10 17:27:40;;;;;;;6.00;3.20;;;;;;;5.98;74.73;99353.56;5030653;28;20531;-80
2022/02/10 17:30:47;;;;;;;6.32;3.20;;;;;;;6.04;75.10;99364.47;5021589;28;20638;-77
2022/02/10 17:33:11;;;;;;;5.85;3.30;;;;;;;6.06;74.52;99365.16;5025623;28;20398;-77
2022/02/10 17:46:38;;;;;;;12.25;5.38;;;;;;;6.02;75.20;99368.31;5021369;28;20040;-76
2022/02/10 17:54:23;;;;;;;7.13;3.50;;;;;;;6.16;74.93;99378.47;5032302;28;20086;-76
2022/02/10 17:56:48;;;;;;;7.80;3.35;;;;;;;6.05;74.51;99346.50;5031936;28;20064;-76
2022/02/10 17:59:15;;;;;;;9.02;3.33;;;;;;;6.03;74.32;99345.84;5031586;28;20492;-76
2022/02/10 18:01:42;;;;;;;6.03;3.08;;;;;;;6.18;74.60;99373.75;5025441;28;20116;-76
2022/02/10 18:04:09;;;;;;;6.20;3.25;;;;;;;6.04;74.88;99358.25;5017900;28;20456;-77
2022/02/10 18:06:40;;;;;;;8.50;3.65;;;;;;;6.04;75.40;99358.25;5014833;28;20130;-76
2022/02/10 18:14:32;;;;;;;7.32;3.42;;;;;;;5.83;76.02;99335.31;5032092;28;20099;-78
2022/02/10 18:17:25;;;;;;;5.50;3.22;;;;;;;5.98;75.83;99354.38;5032680;28;20471;-78
2022/02/10 18:19:57;;;;;;;6.32;3.33;;;;;;;6.05;75.76;99365.31;5033996;28;20048;-77
2022/02/10 18:22:49;;;;;;;10.15;4.40;;;;;;;5.98;75.68;99350.88;5034438;28;20030;-78
2022/02/10 18:25:28;;;;;;;8.82;3.70;;;;;;;6.10;75.43;99368.34;5027610;28;20123;-77
2022/02/10 18:30:25;;;;;;;8.27;3.20;;;;;;;6.05;75.22;99359.94;5033140;28;20124;-75
2022/02/10 19:08:05;;;;;;;6.47;4.30;;;;;;;5.83;75.08;99337.97;5008690;28;20029;-74
2022/02/10 19:10:30;;;;;;;6.43;3.47;;;;;;;5.87;75.63;99362.69;5016253;28;20791;-74
2022/02/10 19:12:58;;;;;;;8.70;3.70;;;;;;;5.79;75.37;99344.69;5027044;28;20025;-74
2022/02/10 19:15:32;;;;;;;8.27;3.63;;;;;;;5.72;75.45;99333.72;5030536;28;20029;-74
2022/02/10 19:17:59;;;;;;;6.00;3.67;;;;;;;5.88;75.81;99351.78;5029914;28;20025;-75
2022/02/10 19:20:26;;;;;;;6.25;3.55;;;;;;;6.02;75.31;99366.47;5030856;28;20145;-76
2022/02/10 19:22:52;;;;;;;10.38;4.68;;;;;;;5.80;75.22;99338.31;5034456;28;20143;-75
2022/02/10 19:25:19;;;;;;;12.02;6.13;;;;;;;5.99;75.03;99371.34;5030976;28;20029;-76
2022/02/10 19:27:48;;;;;;;11.93;5.90;;;;;;;5.90;75.30;99352.47;5029596;28;20422;-75
2022/02/10 19:30:15;;;;;;;12.10;5.53;;;;;;;5.97;75.38;99354.53;5031965;28;20029;-74
2022/02/10 19:32:42;;;;;;;12.05;5.43;;;;;;;5.91;76.03;99364.88;5032230;28;20029;-77
2022/02/10 19:35:09;;;;;;;12.57;5.75;;;;;;;5.91;75.53;99362.19;5030046;28;20060;-77
2022/02/10 19:37:35;;;;;;;13.82;6.40;;;;;;;5.90;75.64;99363.22;5029962;28;20025;-76
2022/02/10 19:40:02;;;;;;;10.85;4.80;;;;;;;5.75;75.47;99345.16;5032361;28;20036;-76
2022/02/10 19:42:32;;;;;;;11.90;6.05;;;;;;;5.57;76.31;99326.44;5030343;28;20049;-76
2022/02/10 19:45:01;;;;;;;9.48;5.35;;;;;;;5.65;76.76;99346.09;5030941;28;20026;-77
2022/02/10 19:47:31;;;;;;;10.18;4.80;;;;;;;5.38;76.48;99312.22;5027361;28;20029;-77
2022/02/10 19:49:58;;;;;;;9.95;4.43;;;;;;;5.35;77.00;99330.50;5015087;28;20044;-76
2022/02/10 19:52:24;;;;;;;13.57;5.45;;;;;;;5.37;77.59;99340.06;5031163;28;20024;-78
2022/02/10 19:54:53;;;;;;;9.02;4.43;;;;;;;5.21;77.29;99307.72;5036697;28;20478;-77
2022/02/10 19:57:20;;;;;;;9.93;4.32;;;;;;;5.16;77.73;99316.28;5033282;28;20029;-76
2022/02/10 19:59:45;;;;;;;10.40;5.57;;;;;;;5.31;78.26;99335.31;5037408;28;20103;-77
2022/02/10 20:02:11;;;;;;;17.30;7.70;;;;;;;5.21;78.61;99307.72;5047014;28;20112;-78
2022/02/10 20:04:37;;;;;;;21.33;9.75;;;;;;;5.18;78.92;99302.69;5030491;28;20029;-76
2022/02/10 20:07:02;;;;;;;17.02;9.05;;;;;;;5.30;78.35;99306.81;5040815;28;20029;-78
2022/02/10 20:09:28;;;;;;;13.38;8.02;;;;;;;5.19;79.12;99312.44;5033454;28;20025;-79
2022/02/10 20:11:55;;;;;;;13.20;6.82;;;;;;;5.22;79.65;99318.31;5031788;28;20419;-79
2022/02/10 20:14:22;;;;;;;14.35;7.30;;;;;;;5.22;79.30;99326.38;5032383;28;20044;-77
2022/02/10 20:16:49;;;;;;;12.30;6.22;;;;;;;4.82;79.75;99265.19;5033461;28;20093;-78
2022/02/10 20:19:14;;;;;;;9.90;5.32;;;;;;;5.09;79.42;99311.69;5023720;28;20026;-80
2022/02/10 20:21:40;;;;;;;9.43;5.30;;;;;;;4.81;80.56;99314.47;5030320;28;20044;-78
2022/02/10 20:24:06;;;;;;;12.43;7.00;;;;;;;4.56;81.36;99306.19;5039610;28;20021;-77
2022/02/10 20:26:31;;;;;;;9.85;5.55;;;;;;;4.69;80.73;99304.94;5025918;28;20030;-78
2022/02/10 20:28:56;;;;;;;12.45;5.72;;;;;;;4.36;81.63;99275.19;5039010;28;20108;-78
2022/02/10 20:31:23;;;;;;;12.15;5.55;;;;;;;4.56;82.49;99345.56;5033979;28;20029;-78
2022/02/10 20:33:49;;;;;;;12.68;6.05;;;;;;;4.46;82.89;99340.25;5038671;28;20021;-81
2022/02/10 20:36:14;;;;;;;11.77;5.30;;;;;;;4.67;81.91;99331.09;5038657;28;20646;-78
2022/02/10 20:38:44;;;;;;;13.10;4.90;;;;;;;4.68;81.83;99309.47;5038315;28;20413;-79
2022/02/10 20:41:14;;;;;;;16.13;7.55;;;;;;;4.50;80.43;99265.75;5039793;28;20025;-78
2022/02/10 20:43:40;;;;;;;21.95;10.30;;;;;;;4.63;80.81;99289.50;5030636;28;20022;-79
2022/02/10 20:46:09;;;;;;;14.30;7.13;;;;;;;4.80;81.23;99321.66;5026728;28;20026;-79
2022/02/10 20:48:36;;;;;;;16.15;6.60;;;;;;;4.61;81.57;99303.91;5022726;28;20021;-79
2022/02/10 20:51:06;;;;;;;13.98;7.95;;;;;;;4.52;82.38;99302.13;5037429;28;20129;-79
2022/02/10 20:53:32;;;;;;;17.35;9.00;;;;;;;4.69;82.45;99313.00;5036744;28;20037;-78
2022/02/10 20:56:00;;;;;;;17.55;9.25;;;;;;;4.69;82.71;99319.22;5033644;28;20507;-78
2022/02/10 20:58:28;;;;;;;18.17;8.93;;;;;;;4.65;83.23;99306.28;5033191;28;20043;-76
2022/02/10 21:00:57;;;;;;;21.58;10.00;;;;;;;4.77;82.94;99316.63;5028996;28;20584;-76
2022/02/10 21:03:26;;;;;;;20.45;10.95;;;;;;;4.73;83.11;99309.03;5022296;28;20044;-76
2022/02/10 21:05:58;;;;;;;17.17;9.33;;;;;;;4.78;82.84;99298.69;5032764;28;20036;-76
2022/02/10 21:10:49;;;;;;;15.75;7.88;;;;;;;4.96;81.33;99291.47;5014934;28;20056;-73
2022/02/10 21:13:15;;;;;;;16.00;8.90;;;;;;;5.00;81.99;99314.31;5014854;28;20022;-73
2022/02/10 21:15:44;;;;;;;12.93;7.18;;;;;;;4.91;80.61;99275.00;5013206;28;20022;-74
2022/02/10 21:18:11;;;;;;;14.32;8.70;;;;;;;4.81;80.53;99263.53;5026655;28;20025;-73
2022/02/10 21:20:37;;;;;;;23.52;11.27;;;;;;;4.98;80.85;99300.19;5014904;28;20034;-74
2022/02/10 21:25:37;;;;;;;16.65;8.20;;;;;;;5.02;79.84;99279.28;5022191;28;20025;-74
2022/02/10 21:28:09;;;;;;;17.92;9.25;;;;;;;5.09;80.98;99300.97;5008059;28;20598;-74
2022/02/10 21:30:34;;;;;;;19.08;8.70;;;;;;;5.02;81.13;99296.19;5018000;28;20045;-73
2022/02/10 21:33:02;;;;;;;19.92;8.60;;;;;;;4.90;81.69;99278.69;5013779;28;20509;-73
2022/02/10 21:35:39;;;;;;;16.27;7.63;;;;;;;4.89;82.41;99292.25;5014475;28;20048;-74
2022/02/10 21:54:34;;;;;;;10.10;5.22;;;;;;;4.36;85.54;99254.59;5014433;28;20060;-71
2022/02/10 21:57:10;;;;;;;9.98;4.65;;;;;;;4.31;86.88;99250.69;5013160;28;20487;-74
2022/02/10 21:59:55;;;;;;;9.40;4.95;;;;;;;4.35;86.47;99268.16;5006742;28;20029;-74
2022/02/10 22:10:25;;;;;;;12.48;5.43;;;;;;;4.42;86.22;99258.47;5014813;28;20040;-74
2022/02/10 22:21:09;;;;;;;13.03;6.23;;;;;;;4.77;83.78;99238.03;4984963;28;20041;-74
2022/02/10 22:23:37;;;;;;;12.05;6.22;;;;;;;4.86;85.49;99261.22;5015438;28;20659;-74
2022/02/10 22:26:07;;;;;;;13.98;6.60;;;;;;;4.66;87.29;99259.69;5016804;28;20122;-74
2022/02/10 22:31:25;;;;;;;14.27;7.55;;;;;;;4.60;88.05;99253.13;5003363;28;20045;-73
2022/02/10 22:36:29;;;;;;;15.37;8.07;;;;;;;4.80;87.57;99241.25;4997713;28;20022;-72
2022/02/10 22:38:59;;;;;;;16.73;9.13;;;;;;;4.85;86.67;99248.81;5029746;28;20025;-72
2022/02/10 22:41:25;;;;;;;14.77;8.10;;;;;;;4.69;87.02;99236.13;5030196;28;20053;-74
2022/02/10 22:43:51;;;;;;;15.30;8.68;;;;;;;4.69;87.63;99235.28;5007529;28;20447;-74
2022/02/10 22:46:19;;;;;;;19.50;11.25;;;;;;;4.98;86.35;99241.22;5013060;28;20415;-74
2022/02/10 22:48:46;;;;;;;21.27;11.90;;;;;;;5.07;85.35;99249.31;5006412;28;20033;-74
2022/02/10 22:51:13;;;;;;;17.17;9.55;;;;;;;4.86;86.71;99252.34;5003669;28;20096;-73
2022/02/10 22:53:39;;;;;;;14.68;7.95;;;;;;;4.78;86.48;99237.03;5006877;28;20515;-74
2022/02/10 22:56:10;;;;;;;15.20;8.52;;;;;;;4.74;85.97;99230.28;4993429;28;20030;-73
2022/02/10 22:58:39;;;;;;;14.80;7.68;;;;;;;4.97;86.20;99236.81;4993459;28;20054;-73
2022/02/10 23:01:05;;;;;;;14.23;8.02;;;;;;;5.01;85.59;99232.00;5001171;28;20018;-73
2022/02/10 23:03:34;;;;;;;14.45;7.65;;;;;;;5.01;85.66;99234.69;5005886;28;20026;-73
2022/02/10 23:05:59;;;;;;;15.98;7.38;;;;;;;4.92;86.07;99239.13;4990985;28;20022;-74
2022/02/10 23:08:25;;;;;;;13.90;7.57;;;;;;;4.74;86.60;99236.50;4994243;28;20553;-74
2022/02/10 23:10:52;;;;;;;13.77;7.38;;;;;;;4.66;86.63;99217.66;5003169;28;20136;-73
2022/02/10 23:13:21;;;;;;;13.88;7.72;;;;;;;4.73;86.99;99240.19;5011145;28;20030;-73
2022/02/10 23:15:48;;;;;;;11.70;6.68;;;;;;;4.73;86.25;99237.50;5009466;28;20026;-73
2022/02/10 23:18:15;;;;;;;13.40;6.72;;;;;;;4.63;85.59;99195.69;5012437;28;20451;-73
2022/02/10 23:20:41;;;;;;;11.18;6.55;;;;;;;4.88;85.48;99237.78;5011815;28;20033;-72
2022/02/10 23:23:09;;;;;;;12.70;6.65;;;;;;;4.88;86.13;99235.09;5014350;28;20482;-74
2022/02/10 23:25:37;;;;;;;12.93;6.82;;;;;;;4.90;86.75;99245.66;5011122;28;20471;-73
2022/02/10 23:28:05;;;;;;;11.27;6.53;;;;;;;4.80;87.20;99232.38;5011671;28;20092;-73
2022/02/10 23:30:30;;;;;;;14.25;6.60;;;;;;;4.55;86.75;99191.94;5011180;28;20559;-74
2022/02/10 23:33:02;;;;;;;11.20;6.40;;;;;;;4.83;86.95;99232.03;5009875;28;20033;-73
2022/02/10 23:38:01;;;;;;;11.77;6.53;;;;;;;4.85;85.11;99205.94;5010030;28;20036;-73
2022/02/10 23:40:33;;;;;;;10.88;5.85;;;;;;;4.97;86.30;99231.47;5011583;28;20022;-73
2022/02/10 23:42:58;;;;;;;11.13;6.25;;;;;;;4.94;86.21;99231.78;5007568;28;20022;-73
2022/02/10 23:45:27;;;;;;;11.23;5.88;;;;;;;4.88;86.97;99220.88;5010831;28;20475;-74
2022/02/10 23:47:53;;;;;;;14.20;6.65;;;;;;;4.72;86.97;99200.16;5009393;28;20030;-73
2022/02/10 23:50:24;;;;;;;15.38;7.13;;;;;;;4.69;87.49;99205.78;5010672;28;20030;-74
2022/02/10 23:52:55;;;;;;;15.40;6.93;;;;;;;4.73;86.77;99201.81;4996342;28;20057;-74
2022/02/10 23:55:29;;;;;;;13.63;6.55;;;;;;;4.81;88.12;99231.34;5010397;28;20026;-73
2022/02/10 23:58:11;;;;;;;12.73;7.03;;;;;;;4.91;87.87;99223.22;5008175;28;20022;-74
